sensor_id;sensor_type;location;lat;lon;timestamp;P1;durP1;ratioP1;P2;durP2;ratioP2
11964;SDS011;6042;41.326;19.826;2022-12-18T00:00:22;2.83;;;1.60;;
11964;SDS011;6042;41.326;19.826;2022-12-18T00:02:52;5.00;;;1.80;;
11964;SDS011;6042;41.326;19.826;2022-12-18T00:05:21;2.40;;;1.40;;
11964;SDS011;6042;41.326;19.826;2022-12-18T00:07:51;4.03;;;2.53;;
11964;SDS011;6042;41.326;19.826;2022-12-18T00:10:20;6.13;;;2.67;;
11964;SDS011;6042;41.326;19.826;2022-12-18T00:12:49;4.10;;;1.60;;
11964;SDS011;6042;41.326;19.826;2022-12-18T00:15:18;8.10;;;3.17;;
11964;SDS011;6042;41.326;19.826;2022-12-18T00:17:47;6.37;;;2.93;;
11964;SDS011;6042;41.326;19.826;2022-12-18T00:20:15;6.70;;;2.53;;
11964;SDS011;6042;41.326;19.826;2022-12-18T00:22:53;2.43;;;1.90;;
11964;SDS011;6042;41.326;19.826;2022-12-18T00:25:22;4.10;;;1.70;;
11964;SDS011;6042;41.326;19.826;2022-12-18T00:27:50;4.50;;;1.77;;
11964;SDS011;6042;41.326;19.826;2022-12-18T00:30:19;3.07;;;1.60;;
11964;SDS011;6042;41.326;19.826;2022-12-18T00:32:48;3.73;;;1.50;;
11964;SDS011;6042;41.326;19.826;2022-12-18T00:35:17;5.27;;;2.00;;
11964;SDS011;6042;41.326;19.826;2022-12-18T00:37:45;5.10;;;1.67;;
11964;SDS011;6042;41.326;19.826;2022-12-18T00:40:15;2.67;;;1.60;;
11964;SDS011;6042;41.326;19.826;2022-12-18T00:42:44;12.37;;;8.07;;
11964;SDS011;6042;41.326;19.826;2022-12-18T00:45:25;5.50;;;2.20;;
11964;SDS011;6042;41.326;19.826;2022-12-18T00:47:55;3.23;;;1.80;;
11964;SDS011;6042;41.326;19.826;2022-12-18T00:50:24;4.13;;;1.40;;
11964;SDS011;6042;41.326;19.826;2022-12-18T00:52:53;4.33;;;1.53;;
11964;SDS011;6042;41.326;19.826;2022-12-18T00:55:23;1.90;;;1.30;;
11964;SDS011;6042;41.326;19.826;2022-12-18T00:57:52;3.20;;;1.33;;
11964;SDS011;6042;41.326;19.826;2022-12-18T01:00:21;3.37;;;1.30;;
11964;SDS011;6042;41.326;19.826;2022-12-18T01:02:49;5.93;;;1.40;;
11964;SDS011;6042;41.326;19.826;2022-12-18T01:05:19;4.43;;;1.30;;
11964;SDS011;6042;41.326;19.826;2022-12-18T01:07:47;3.00;;;1.10;;
11964;SDS011;6042;41.326;19.826;2022-12-18T01:10:16;2.83;;;1.10;;
11964;SDS011;6042;41.326;19.826;2022-12-18T01:12:47;3.37;;;1.23;;
11964;SDS011;6042;41.326;19.826;2022-12-18T01:15:17;3.23;;;1.43;;
11964;SDS011;6042;41.326;19.826;2022-12-18T01:17:46;1.43;;;1.07;;
11964;SDS011;6042;41.326;19.826;2022-12-18T01:20:15;3.70;;;1.13;;
11964;SDS011;6042;41.326;19.826;2022-12-18T01:22:44;2.83;;;0.90;;
11964;SDS011;6042;41.326;19.826;2022-12-18T01:25:13;3.57;;;1.17;;
11964;SDS011;6042;41.326;19.826;2022-12-18T01:27:42;5.80;;;1.27;;
11964;SDS011;6042;41.326;19.826;2022-12-18T01:30:12;2.77;;;1.00;;
11964;SDS011;6042;41.326;19.826;2022-12-18T01:32:41;3.90;;;1.13;;
11964;SDS011;6042;41.326;19.826;2022-12-18T01:35:10;1.97;;;1.10;;
11964;SDS011;6042;41.326;19.826;2022-12-18T01:37:39;2.93;;;1.10;;
11964;SDS011;6042;41.326;19.826;2022-12-18T01:40:09;3.30;;;1.07;;
11964;SDS011;6042;41.326;19.826;2022-12-18T01:42:38;3.40;;;1.07;;
11964;SDS011;6042;41.326;19.826;2022-12-18T01:45:22;4.03;;;1.00;;
11964;SDS011;6042;41.326;19.826;2022-12-18T01:47:54;3.23;;;1.20;;
11964;SDS011;6042;41.326;19.826;2022-12-18T01:50:27;5.53;;;1.30;;
11964;SDS011;6042;41.326;19.826;2022-12-18T01:53:02;5.27;;;1.23;;
11964;SDS011;6042;41.326;19.826;2022-12-18T01:55:35;1.67;;;0.97;;
11964;SDS011;6042;41.326;19.826;2022-12-18T01:58:08;2.07;;;0.80;;
11964;SDS011;6042;41.326;19.826;2022-12-18T02:00:39;3.07;;;1.10;;
11964;SDS011;6042;41.326;19.826;2022-12-18T02:03:08;3.07;;;1.10;;
11964;SDS011;6042;41.326;19.826;2022-12-18T02:05:40;3.40;;;1.20;;
11964;SDS011;6042;41.326;19.826;2022-12-18T02:08:16;2.30;;;0.93;;
11964;SDS011;6042;41.326;19.826;2022-12-18T02:10:53;5.37;;;1.10;;
11964;SDS011;6042;41.326;19.826;2022-12-18T02:13:32;2.53;;;0.90;;
11964;SDS011;6042;41.326;19.826;2022-12-18T02:16:10;4.77;;;1.20;;
11964;SDS011;6042;41.326;19.826;2022-12-18T02:18:49;4.13;;;1.50;;
11964;SDS011;6042;41.326;19.826;2022-12-18T02:21:25;4.10;;;1.23;;
11964;SDS011;6042;41.326;19.826;2022-12-18T02:24:09;4.53;;;1.20;;
11964;SDS011;6042;41.326;19.826;2022-12-18T02:26:47;2.37;;;0.97;;
11964;SDS011;6042;41.326;19.826;2022-12-18T02:29:22;2.47;;;1.13;;
11964;SDS011;6042;41.326;19.826;2022-12-18T02:31:56;1.23;;;0.90;;
11964;SDS011;6042;41.326;19.826;2022-12-18T02:34:31;5.40;;;1.10;;
11964;SDS011;6042;41.326;19.826;2022-12-18T02:37:03;3.07;;;1.13;;
11964;SDS011;6042;41.326;19.826;2022-12-18T02:39:37;2.47;;;1.10;;
11964;SDS011;6042;41.326;19.826;2022-12-18T02:42:11;1.47;;;0.90;;
11964;SDS011;6042;41.326;19.826;2022-12-18T02:44:42;4.37;;;1.13;;
11964;SDS011;6042;41.326;19.826;2022-12-18T02:47:16;3.23;;;1.00;;
11964;SDS011;6042;41.326;19.826;2022-12-18T02:49:49;3.67;;;0.90;;
11964;SDS011;6042;41.326;19.826;2022-12-18T02:52:28;3.37;;;0.80;;
11964;SDS011;6042;41.326;19.826;2022-12-18T02:55:08;4.77;;;1.30;;
11964;SDS011;6042;41.326;19.826;2022-12-18T02:57:55;3.43;;;1.00;;
11964;SDS011;6042;41.326;19.826;2022-12-18T03:00:35;4.83;;;1.13;;
11964;SDS011;6042;41.326;19.826;2022-12-18T03:03:10;2.83;;;0.93;;
11964;SDS011;6042;41.326;19.826;2022-12-18T03:05:43;3.60;;;1.30;;
11964;SDS011;6042;41.326;19.826;2022-12-18T03:08:17;1.50;;;1.07;;
11964;SDS011;6042;41.326;19.826;2022-12-18T03:10:51;1.20;;;1.10;;
11964;SDS011;6042;41.326;19.826;2022-12-18T03:13:25;1.53;;;1.00;;
11964;SDS011;6042;41.326;19.826;2022-12-18T03:15:58;4.70;;;1.20;;
11964;SDS011;6042;41.326;19.826;2022-12-18T03:18:29;3.20;;;1.00;;
11964;SDS011;6042;41.326;19.826;2022-12-18T03:21:02;0.80;;;0.80;;
11964;SDS011;6042;41.326;19.826;2022-12-18T03:23:37;5.60;;;1.40;;
11964;SDS011;6042;41.326;19.826;2022-12-18T03:26:14;4.20;;;1.10;;
11964;SDS011;6042;41.326;19.826;2022-12-18T03:28:49;1.53;;;0.70;;
11964;SDS011;6042;41.326;19.826;2022-12-18T03:31:19;3.67;;;1.00;;
11964;SDS011;6042;41.326;19.826;2022-12-18T03:33:52;1.93;;;1.00;;
11964;SDS011;6042;41.326;19.826;2022-12-18T03:36:30;1.90;;;0.90;;
11964;SDS011;6042;41.326;19.826;2022-12-18T03:39:00;2.47;;;1.03;;
11964;SDS011;6042;41.326;19.826;2022-12-18T03:41:33;3.40;;;1.00;;
11964;SDS011;6042;41.326;19.826;2022-12-18T03:44:26;4.77;;;1.13;;
11964;SDS011;6042;41.326;19.826;2022-12-18T03:47:01;3.00;;;0.93;;
11964;SDS011;6042;41.326;19.826;2022-12-18T03:49:36;2.43;;;1.10;;
11964;SDS011;6042;41.326;19.826;2022-12-18T03:52:12;1.97;;;0.83;;
11964;SDS011;6042;41.326;19.826;2022-12-18T03:54:46;2.80;;;1.07;;
11964;SDS011;6042;41.326;19.826;2022-12-18T03:57:18;2.80;;;1.10;;
11964;SDS011;6042;41.326;19.826;2022-12-18T03:59:54;2.30;;;1.00;;
11964;SDS011;6042;41.326;19.826;2022-12-18T04:02:40;3.73;;;1.00;;
11964;SDS011;6042;41.326;19.826;2022-12-18T04:05:19;2.70;;;0.90;;
11964;SDS011;6042;41.326;19.826;2022-12-18T04:07:49;2.37;;;0.93;;
11964;SDS011;6042;41.326;19.826;2022-12-18T04:10:21;1.97;;;1.00;;
11964;SDS011;6042;41.326;19.826;2022-12-18T04:12:50;3.23;;;1.10;;
11964;SDS011;6042;41.326;19.826;2022-12-18T04:15:25;2.10;;;1.90;;
11964;SDS011;6042;41.326;19.826;2022-12-18T04:17:55;2.73;;;1.10;;
11964;SDS011;6042;41.326;19.826;2022-12-18T04:20:34;3.37;;;0.93;;
11964;SDS011;6042;41.326;19.826;2022-12-18T04:23:03;2.47;;;0.90;;
11964;SDS011;6042;41.326;19.826;2022-12-18T04:25:32;1.53;;;0.80;;
11964;SDS011;6042;41.326;19.826;2022-12-18T04:28:07;2.37;;;0.97;;
11964;SDS011;6042;41.326;19.826;2022-12-18T04:30:39;5.93;;;1.37;;
11964;SDS011;6042;41.326;19.826;2022-12-18T04:33:09;2.90;;;0.97;;
11964;SDS011;6042;41.326;19.826;2022-12-18T04:35:38;2.47;;;1.30;;
11964;SDS011;6042;41.326;19.826;2022-12-18T04:38:08;2.20;;;1.00;;
11964;SDS011;6042;41.326;19.826;2022-12-18T04:40:37;4.23;;;1.00;;
11964;SDS011;6042;41.326;19.826;2022-12-18T04:43:15;1.60;;;1.00;;
11964;SDS011;6042;41.326;19.826;2022-12-18T04:45:47;1.90;;;1.10;;
11964;SDS011;6042;41.326;19.826;2022-12-18T04:48:15;3.67;;;1.13;;
11964;SDS011;6042;41.326;19.826;2022-12-18T04:50:44;2.13;;;1.20;;
11964;SDS011;6042;41.326;19.826;2022-12-18T04:53:14;3.30;;;1.43;;
11964;SDS011;6042;41.326;19.826;2022-12-18T04:55:42;3.90;;;1.47;;
11964;SDS011;6042;41.326;19.826;2022-12-18T04:58:11;2.53;;;0.97;;
11964;SDS011;6042;41.326;19.826;2022-12-18T05:00:39;3.73;;;1.20;;
11964;SDS011;6042;41.326;19.826;2022-12-18T05:03:09;3.57;;;1.40;;
11964;SDS011;6042;41.326;19.826;2022-12-18T05:05:39;1.63;;;1.07;;
11964;SDS011;6042;41.326;19.826;2022-12-18T05:08:08;2.33;;;1.30;;
11964;SDS011;6042;41.326;19.826;2022-12-18T05:10:37;1.47;;;1.10;;
11964;SDS011;6042;41.326;19.826;2022-12-18T05:13:07;2.40;;;1.23;;
11964;SDS011;6042;41.326;19.826;2022-12-18T05:15:35;4.10;;;1.30;;
11964;SDS011;6042;41.326;19.826;2022-12-18T05:18:04;1.67;;;1.10;;
11964;SDS011;6042;41.326;19.826;2022-12-18T05:20:34;1.97;;;1.10;;
11964;SDS011;6042;41.326;19.826;2022-12-18T05:23:03;2.27;;;1.20;;
11964;SDS011;6042;41.326;19.826;2022-12-18T05:25:32;2.67;;;1.23;;
11964;SDS011;6042;41.326;19.826;2022-12-18T05:28:00;1.47;;;1.33;;
11964;SDS011;6042;41.326;19.826;2022-12-18T05:30:29;2.33;;;1.20;;
11964;SDS011;6042;41.326;19.826;2022-12-18T05:32:58;2.97;;;1.50;;
11964;SDS011;6042;41.326;19.826;2022-12-18T05:35:26;2.43;;;1.27;;
11964;SDS011;6042;41.326;19.826;2022-12-18T05:37:59;1.53;;;1.00;;
11964;SDS011;6042;41.326;19.826;2022-12-18T05:40:27;3.27;;;1.43;;
11964;SDS011;6042;41.326;19.826;2022-12-18T05:42:57;2.53;;;1.37;;
11964;SDS011;6042;41.326;19.826;2022-12-18T05:45:26;3.63;;;1.20;;
11964;SDS011;6042;41.326;19.826;2022-12-18T05:47:55;5.97;;;1.17;;
11964;SDS011;6042;41.326;19.826;2022-12-18T05:50:24;4.50;;;1.07;;
11964;SDS011;6042;41.326;19.826;2022-12-18T05:52:52;2.57;;;1.37;;
11964;SDS011;6042;41.326;19.826;2022-12-18T05:55:22;2.20;;;1.10;;
11964;SDS011;6042;41.326;19.826;2022-12-18T05:57:52;4.63;;;1.10;;
11964;SDS011;6042;41.326;19.826;2022-12-18T06:00:21;1.73;;;1.00;;
11964;SDS011;6042;41.326;19.826;2022-12-18T06:02:50;1.80;;;1.20;;
11964;SDS011;6042;41.326;19.826;2022-12-18T06:05:18;2.07;;;1.17;;
11964;SDS011;6042;41.326;19.826;2022-12-18T06:07:47;2.57;;;1.20;;
11964;SDS011;6042;41.326;19.826;2022-12-18T06:10:16;4.60;;;1.50;;
11964;SDS011;6042;41.326;19.826;2022-12-18T06:12:47;2.33;;;1.60;;
11964;SDS011;6042;41.326;19.826;2022-12-18T06:15:15;3.53;;;1.50;;
11964;SDS011;6042;41.326;19.826;2022-12-18T06:17:44;2.83;;;1.00;;
11964;SDS011;6042;41.326;19.826;2022-12-18T06:20:13;1.83;;;0.87;;
11964;SDS011;6042;41.326;19.826;2022-12-18T06:22:43;3.10;;;1.30;;
11964;SDS011;6042;41.326;19.826;2022-12-18T06:25:12;1.90;;;1.17;;
11964;SDS011;6042;41.326;19.826;2022-12-18T06:27:41;1.73;;;1.10;;
11964;SDS011;6042;41.326;19.826;2022-12-18T06:30:12;1.80;;;1.03;;
11964;SDS011;6042;41.326;19.826;2022-12-18T06:32:41;1.87;;;1.00;;
11964;SDS011;6042;41.326;19.826;2022-12-18T06:35:14;3.67;;;1.30;;
11964;SDS011;6042;41.326;19.826;2022-12-18T06:37:43;2.27;;;1.23;;
11964;SDS011;6042;41.326;19.826;2022-12-18T06:40:11;1.90;;;1.27;;
11964;SDS011;6042;41.326;19.826;2022-12-18T06:42:40;1.63;;;1.10;;
11964;SDS011;6042;41.326;19.826;2022-12-18T06:45:09;2.10;;;1.53;;
11964;SDS011;6042;41.326;19.826;2022-12-18T06:47:40;2.87;;;1.30;;
11964;SDS011;6042;41.326;19.826;2022-12-18T06:50:08;5.43;;;1.60;;
11964;SDS011;6042;41.326;19.826;2022-12-18T06:52:37;1.90;;;1.07;;
11964;SDS011;6042;41.326;19.826;2022-12-18T06:55:07;2.07;;;1.13;;
11964;SDS011;6042;41.326;19.826;2022-12-18T06:57:36;2.83;;;1.27;;
11964;SDS011;6042;41.326;19.826;2022-12-18T07:00:07;4.93;;;1.37;;
11964;SDS011;6042;41.326;19.826;2022-12-18T07:02:36;3.53;;;1.03;;
11964;SDS011;6042;41.326;19.826;2022-12-18T07:05:07;2.43;;;1.23;;
11964;SDS011;6042;41.326;19.826;2022-12-18T07:07:36;2.03;;;1.10;;
11964;SDS011;6042;41.326;19.826;2022-12-18T07:10:05;3.30;;;1.13;;
11964;SDS011;6042;41.326;19.826;2022-12-18T07:12:34;4.73;;;1.60;;
11964;SDS011;6042;41.326;19.826;2022-12-18T07:15:03;3.77;;;1.77;;
11964;SDS011;6042;41.326;19.826;2022-12-18T07:17:34;3.33;;;1.60;;
11964;SDS011;6042;41.326;19.826;2022-12-18T07:20:02;2.07;;;1.70;;
11964;SDS011;6042;41.326;19.826;2022-12-18T07:22:33;7.80;;;2.03;;
11964;SDS011;6042;41.326;19.826;2022-12-18T07:25:02;1.80;;;1.40;;
11964;SDS011;6042;41.326;19.826;2022-12-18T07:27:31;2.33;;;1.33;;
11964;SDS011;6042;41.326;19.826;2022-12-18T07:29:59;2.30;;;1.60;;
11964;SDS011;6042;41.326;19.826;2022-12-18T07:32:28;2.17;;;1.60;;
11964;SDS011;6042;41.326;19.826;2022-12-18T07:34:58;3.63;;;1.43;;
11964;SDS011;6042;41.326;19.826;2022-12-18T07:37:27;4.33;;;1.60;;
11964;SDS011;6042;41.326;19.826;2022-12-18T07:39:57;9.90;;;1.63;;
11964;SDS011;6042;41.326;19.826;2022-12-18T07:42:25;4.17;;;1.63;;
11964;SDS011;6042;41.326;19.826;2022-12-18T07:45:02;3.80;;;2.00;;
11964;SDS011;6042;41.326;19.826;2022-12-18T07:47:33;5.77;;;1.80;;
11964;SDS011;6042;41.326;19.826;2022-12-18T07:50:03;6.40;;;1.60;;
11964;SDS011;6042;41.326;19.826;2022-12-18T07:52:33;3.73;;;1.40;;
11964;SDS011;6042;41.326;19.826;2022-12-18T07:55:04;3.63;;;1.67;;
11964;SDS011;6042;41.326;19.826;2022-12-18T07:57:34;3.10;;;1.23;;
11964;SDS011;6042;41.326;19.826;2022-12-18T08:00:22;4.20;;;1.70;;
11964;SDS011;6042;41.326;19.826;2022-12-18T08:02:51;5.43;;;1.60;;
11964;SDS011;6042;41.326;19.826;2022-12-18T08:05:21;4.03;;;1.90;;
11964;SDS011;6042;41.326;19.826;2022-12-18T08:07:50;3.93;;;1.10;;
11964;SDS011;6042;41.326;19.826;2022-12-18T08:10:20;2.07;;;1.53;;
11964;SDS011;6042;41.326;19.826;2022-12-18T08:12:49;8.73;;;2.20;;
11964;SDS011;6042;41.326;19.826;2022-12-18T08:15:18;8.67;;;1.60;;
11964;SDS011;6042;41.326;19.826;2022-12-18T08:17:47;4.57;;;1.50;;
11964;SDS011;6042;41.326;19.826;2022-12-18T08:20:16;2.63;;;1.40;;
11964;SDS011;6042;41.326;19.826;2022-12-18T08:22:44;5.23;;;1.43;;
11964;SDS011;6042;41.326;19.826;2022-12-18T08:25:13;3.73;;;1.90;;
11964;SDS011;6042;41.326;19.826;2022-12-18T08:27:43;5.23;;;1.90;;
11964;SDS011;6042;41.326;19.826;2022-12-18T08:30:13;11.53;;;2.70;;
11964;SDS011;6042;41.326;19.826;2022-12-18T08:32:42;4.23;;;1.83;;
11964;SDS011;6042;41.326;19.826;2022-12-18T08:35:10;1.97;;;1.43;;
11964;SDS011;6042;41.326;19.826;2022-12-18T08:37:44;2.40;;;1.47;;
11964;SDS011;6042;41.326;19.826;2022-12-18T08:40:12;1.20;;;1.10;;
11964;SDS011;6042;41.326;19.826;2022-12-18T08:42:43;2.50;;;1.50;;
11964;SDS011;6042;41.326;19.826;2022-12-18T08:45:30;3.43;;;2.50;;
11964;SDS011;6042;41.326;19.826;2022-12-18T08:47:59;4.43;;;1.80;;
11964;SDS011;6042;41.326;19.826;2022-12-18T08:50:27;7.00;;;2.00;;
11964;SDS011;6042;41.326;19.826;2022-12-18T08:53:01;3.77;;;1.60;;
11964;SDS011;6042;41.326;19.826;2022-12-18T08:55:29;2.37;;;1.60;;
11964;SDS011;6042;41.326;19.826;2022-12-18T08:58:00;3.23;;;1.57;;
11964;SDS011;6042;41.326;19.826;2022-12-18T09:00:28;3.53;;;1.47;;
11964;SDS011;6042;41.326;19.826;2022-12-18T09:02:57;2.47;;;1.40;;
11964;SDS011;6042;41.326;19.826;2022-12-18T09:05:27;6.13;;;1.70;;
11964;SDS011;6042;41.326;19.826;2022-12-18T09:07:55;8.00;;;2.20;;
11964;SDS011;6042;41.326;19.826;2022-12-18T09:10:24;4.77;;;3.07;;
11964;SDS011;6042;41.326;19.826;2022-12-18T09:12:52;5.20;;;2.67;;
11964;SDS011;6042;41.326;19.826;2022-12-18T09:15:24;4.87;;;2.00;;
11964;SDS011;6042;41.326;19.826;2022-12-18T09:17:52;2.10;;;1.83;;
11964;SDS011;6042;41.326;19.826;2022-12-18T09:20:21;3.00;;;1.80;;
11964;SDS011;6042;41.326;19.826;2022-12-18T09:22:51;3.93;;;1.93;;
11964;SDS011;6042;41.326;19.826;2022-12-18T09:25:19;8.17;;;2.40;;
11964;SDS011;6042;41.326;19.826;2022-12-18T09:27:49;2.80;;;1.90;;
11964;SDS011;6042;41.326;19.826;2022-12-18T09:30:17;4.97;;;2.10;;
11964;SDS011;6042;41.326;19.826;2022-12-18T09:32:47;6.33;;;2.03;;
11964;SDS011;6042;41.326;19.826;2022-12-18T09:35:16;7.07;;;2.87;;
11964;SDS011;6042;41.326;19.826;2022-12-18T09:37:45;6.67;;;3.40;;
11964;SDS011;6042;41.326;19.826;2022-12-18T09:40:14;11.33;;;4.07;;
11964;SDS011;6042;41.326;19.826;2022-12-18T09:42:45;7.37;;;4.30;;
11964;SDS011;6042;41.326;19.826;2022-12-18T09:45:18;9.20;;;5.70;;
11964;SDS011;6042;41.326;19.826;2022-12-18T09:47:48;12.63;;;5.93;;
11964;SDS011;6042;41.326;19.826;2022-12-18T09:50:22;10.63;;;5.27;;
11964;SDS011;6042;41.326;19.826;2022-12-18T09:52:56;12.50;;;6.03;;
11964;SDS011;6042;41.326;19.826;2022-12-18T09:55:31;10.10;;;5.57;;
11964;SDS011;6042;41.326;19.826;2022-12-18T09:58:05;10.50;;;5.17;;
11964;SDS011;6042;41.326;19.826;2022-12-18T10:00:39;8.67;;;5.40;;
11964;SDS011;6042;41.326;19.826;2022-12-18T10:03:11;10.03;;;6.03;;
11964;SDS011;6042;41.326;19.826;2022-12-18T10:05:43;15.73;;;7.20;;
11964;SDS011;6042;41.326;19.826;2022-12-18T10:08:22;13.13;;;6.70;;
11964;SDS011;6042;41.326;19.826;2022-12-18T10:11:01;15.37;;;6.50;;
11964;SDS011;6042;41.326;19.826;2022-12-18T10:13:41;15.20;;;7.33;;
11964;SDS011;6042;41.326;19.826;2022-12-18T10:16:14;13.33;;;6.63;;
11964;SDS011;6042;41.326;19.826;2022-12-18T10:18:58;14.17;;;7.57;;
11964;SDS011;6042;41.326;19.826;2022-12-18T10:21:36;12.60;;;7.07;;
11964;SDS011;6042;41.326;19.826;2022-12-18T10:24:14;11.13;;;7.13;;
11964;SDS011;6042;41.326;19.826;2022-12-18T10:26:48;12.83;;;7.93;;
11964;SDS011;6042;41.326;19.826;2022-12-18T10:29:17;12.07;;;7.53;;
11964;SDS011;6042;41.326;19.826;2022-12-18T10:31:47;14.30;;;9.30;;
11964;SDS011;6042;41.326;19.826;2022-12-18T10:34:18;13.77;;;7.23;;
11964;SDS011;6042;41.326;19.826;2022-12-18T10:36:47;12.87;;;8.37;;
11964;SDS011;6042;41.326;19.826;2022-12-18T10:39:16;20.30;;;8.77;;
11964;SDS011;6042;41.326;19.826;2022-12-18T10:41:46;14.37;;;8.43;;
11964;SDS011;6042;41.326;19.826;2022-12-18T10:44:16;14.50;;;7.93;;
11964;SDS011;6042;41.326;19.826;2022-12-18T10:46:46;10.07;;;6.97;;
11964;SDS011;6042;41.326;19.826;2022-12-18T10:49:21;10.27;;;7.30;;
11964;SDS011;6042;41.326;19.826;2022-12-18T10:51:51;15.27;;;7.50;;
11964;SDS011;6042;41.326;19.826;2022-12-18T10:54:34;9.53;;;6.20;;
11964;SDS011;6042;41.326;19.826;2022-12-18T10:57:14;7.67;;;5.50;;
11964;SDS011;6042;41.326;19.826;2022-12-18T10:59:50;11.80;;;6.70;;
11964;SDS011;6042;41.326;19.826;2022-12-18T11:02:25;12.53;;;7.00;;
11964;SDS011;6042;41.326;19.826;2022-12-18T11:04:57;11.27;;;7.17;;
11964;SDS011;6042;41.326;19.826;2022-12-18T11:07:26;6.70;;;4.97;;
11964;SDS011;6042;41.326;19.826;2022-12-18T11:10:16;14.03;;;6.73;;
11964;SDS011;6042;41.326;19.826;2022-12-18T11:12:46;10.27;;;7.57;;
11964;SDS011;6042;41.326;19.826;2022-12-18T11:15:16;11.47;;;7.27;;
11964;SDS011;6042;41.326;19.826;2022-12-18T11:17:49;10.67;;;7.37;;
11964;SDS011;6042;41.326;19.826;2022-12-18T11:20:23;11.03;;;5.70;;
11964;SDS011;6042;41.326;19.826;2022-12-18T11:22:58;11.07;;;4.70;;
11964;SDS011;6042;41.326;19.826;2022-12-18T11:25:29;8.77;;;4.73;;
11964;SDS011;6042;41.326;19.826;2022-12-18T11:28:02;7.50;;;5.07;;
11964;SDS011;6042;41.326;19.826;2022-12-18T11:30:33;10.43;;;4.13;;
11964;SDS011;6042;41.326;19.826;2022-12-18T11:33:04;8.93;;;4.50;;
11964;SDS011;6042;41.326;19.826;2022-12-18T11:35:39;6.57;;;4.43;;
11964;SDS011;6042;41.326;19.826;2022-12-18T11:38:18;11.37;;;4.23;;
11964;SDS011;6042;41.326;19.826;2022-12-18T11:40:52;15.10;;;5.40;;
11964;SDS011;6042;41.326;19.826;2022-12-18T11:43:27;9.27;;;4.53;;
11964;SDS011;6042;41.326;19.826;2022-12-18T11:46:01;7.40;;;4.00;;
11964;SDS011;6042;41.326;19.826;2022-12-18T11:48:34;5.90;;;3.73;;
11964;SDS011;6042;41.326;19.826;2022-12-18T11:51:13;10.30;;;4.03;;
11964;SDS011;6042;41.326;19.826;2022-12-18T11:53:57;5.70;;;3.20;;
11964;SDS011;6042;41.326;19.826;2022-12-18T11:56:30;6.67;;;2.90;;
11964;SDS011;6042;41.326;19.826;2022-12-18T11:59:15;6.57;;;2.67;;
11964;SDS011;6042;41.326;19.826;2022-12-18T12:01:54;4.10;;;2.90;;
11964;SDS011;6042;41.326;19.826;2022-12-18T12:04:38;7.37;;;3.50;;
11964;SDS011;6042;41.326;19.826;2022-12-18T12:07:31;8.63;;;3.43;;
11964;SDS011;6042;41.326;19.826;2022-12-18T12:10:12;5.60;;;2.97;;
11964;SDS011;6042;41.326;19.826;2022-12-18T12:12:57;6.83;;;3.10;;
11964;SDS011;6042;41.326;19.826;2022-12-18T12:15:44;11.97;;;6.87;;
11964;SDS011;6042;41.326;19.826;2022-12-18T12:18:24;8.90;;;4.17;;
11964;SDS011;6042;41.326;19.826;2022-12-18T12:21:01;7.53;;;2.90;;
11964;SDS011;6042;41.326;19.826;2022-12-18T12:23:40;5.27;;;3.33;;
11964;SDS011;6042;41.326;19.826;2022-12-18T12:26:18;7.27;;;3.30;;
11964;SDS011;6042;41.326;19.826;2022-12-18T12:28:55;6.93;;;3.37;;
11964;SDS011;6042;41.326;19.826;2022-12-18T12:31:45;5.00;;;3.00;;
11964;SDS011;6042;41.326;19.826;2022-12-18T12:34:43;10.27;;;3.80;;
11964;SDS011;6042;41.326;19.826;2022-12-18T12:37:30;4.77;;;3.33;;
11964;SDS011;6042;41.326;19.826;2022-12-18T12:40:13;8.27;;;3.87;;
11964;SDS011;6042;41.326;19.826;2022-12-18T12:43:10;7.20;;;3.60;;
11964;SDS011;6042;41.326;19.826;2022-12-18T12:45:51;7.77;;;3.93;;
11964;SDS011;6042;41.326;19.826;2022-12-18T12:48:27;8.80;;;4.13;;
11964;SDS011;6042;41.326;19.826;2022-12-18T12:51:11;6.87;;;3.40;;
11964;SDS011;6042;41.326;19.826;2022-12-18T12:53:44;7.33;;;4.23;;
11964;SDS011;6042;41.326;19.826;2022-12-18T12:56:15;8.63;;;4.87;;
11964;SDS011;6042;41.326;19.826;2022-12-18T12:58:53;6.97;;;4.10;;
11964;SDS011;6042;41.326;19.826;2022-12-18T13:01:28;11.37;;;3.77;;
11964;SDS011;6042;41.326;19.826;2022-12-18T13:04:08;6.20;;;4.17;;
11964;SDS011;6042;41.326;19.826;2022-12-18T13:06:50;9.90;;;4.30;;
11964;SDS011;6042;41.326;19.826;2022-12-18T13:09:25;8.53;;;4.23;;
11964;SDS011;6042;41.326;19.826;2022-12-18T13:12:03;11.37;;;4.50;;
11964;SDS011;6042;41.326;19.826;2022-12-18T13:15:11;11.50;;;4.47;;
11964;SDS011;6042;41.326;19.826;2022-12-18T13:17:47;8.40;;;3.70;;
11964;SDS011;6042;41.326;19.826;2022-12-18T13:20:16;7.63;;;4.23;;
11964;SDS011;6042;41.326;19.826;2022-12-18T13:22:47;7.73;;;3.90;;
11964;SDS011;6042;41.326;19.826;2022-12-18T13:25:30;13.43;;;4.70;;
11964;SDS011;6042;41.326;19.826;2022-12-18T13:28:07;10.63;;;4.13;;
11964;SDS011;6042;41.326;19.826;2022-12-18T13:30:48;8.37;;;3.83;;
11964;SDS011;6042;41.326;19.826;2022-12-18T13:36:34;10.23;;;4.13;;
11964;SDS011;6042;41.326;19.826;2022-12-18T13:39:23;8.20;;;4.03;;
11964;SDS011;6042;41.326;19.826;2022-12-18T13:48:21;11.33;;;5.00;;
11964;SDS011;6042;41.326;19.826;2022-12-18T13:50:53;11.47;;;5.60;;
11964;SDS011;6042;41.326;19.826;2022-12-18T13:53:26;10.47;;;5.20;;
11964;SDS011;6042;41.326;19.826;2022-12-18T13:55:58;13.13;;;4.20;;
11964;SDS011;6042;41.326;19.826;2022-12-18T13:58:27;9.17;;;5.20;;
11964;SDS011;6042;41.326;19.826;2022-12-18T14:00:57;12.23;;;5.77;;
11964;SDS011;6042;41.326;19.826;2022-12-18T14:03:28;13.53;;;6.77;;
11964;SDS011;6042;41.326;19.826;2022-12-18T14:06:01;5.47;;;3.67;;
11964;SDS011;6042;41.326;19.826;2022-12-18T14:08:39;6.30;;;3.67;;
11964;SDS011;6042;41.326;19.826;2022-12-18T14:11:17;7.70;;;3.93;;
11964;SDS011;6042;41.326;19.826;2022-12-18T14:13:52;7.93;;;3.73;;
11964;SDS011;6042;41.326;19.826;2022-12-18T14:16:22;13.63;;;4.40;;
11964;SDS011;6042;41.326;19.826;2022-12-18T14:18:52;6.87;;;4.00;;
11964;SDS011;6042;41.326;19.826;2022-12-18T14:21:44;7.57;;;3.73;;
11964;SDS011;6042;41.326;19.826;2022-12-18T14:24:15;9.40;;;5.03;;
11964;SDS011;6042;41.326;19.826;2022-12-18T14:26:45;8.17;;;4.07;;
11964;SDS011;6042;41.326;19.826;2022-12-18T14:29:20;8.40;;;4.07;;
11964;SDS011;6042;41.326;19.826;2022-12-18T14:32:09;7.97;;;5.10;;
11964;SDS011;6042;41.326;19.826;2022-12-18T14:34:44;5.47;;;4.33;;
11964;SDS011;6042;41.326;19.826;2022-12-18T14:37:21;8.33;;;5.83;;
11964;SDS011;6042;41.326;19.826;2022-12-18T14:39:52;7.00;;;5.23;;
11964;SDS011;6042;41.326;19.826;2022-12-18T14:42:25;11.20;;;5.20;;
11964;SDS011;6042;41.326;19.826;2022-12-18T14:48:12;12.00;;;5.80;;
11964;SDS011;6042;41.326;19.826;2022-12-18T14:50:56;12.07;;;6.00;;
11964;SDS011;6042;41.326;19.826;2022-12-18T14:53:31;8.13;;;5.13;;
11964;SDS011;6042;41.326;19.826;2022-12-18T14:56:03;9.80;;;4.97;;
11964;SDS011;6042;41.326;19.826;2022-12-18T14:58:46;8.57;;;4.83;;
11964;SDS011;6042;41.326;19.826;2022-12-18T15:01:20;13.27;;;5.57;;
11964;SDS011;6042;41.326;19.826;2022-12-18T15:03:53;9.17;;;4.83;;
11964;SDS011;6042;41.326;19.826;2022-12-18T15:06:25;10.47;;;5.90;;
11964;SDS011;6042;41.326;19.826;2022-12-18T15:08:57;10.33;;;5.63;;
11964;SDS011;6042;41.326;19.826;2022-12-18T15:11:28;10.43;;;5.67;;
11964;SDS011;6042;41.326;19.826;2022-12-18T15:16:58;14.93;;;6.73;;
11964;SDS011;6042;41.326;19.826;2022-12-18T15:19:31;12.60;;;6.67;;
11964;SDS011;6042;41.326;19.826;2022-12-18T15:22:04;8.70;;;5.83;;
11964;SDS011;6042;41.326;19.826;2022-12-18T15:24:44;11.17;;;5.47;;
11964;SDS011;6042;41.326;19.826;2022-12-18T15:27:24;8.43;;;5.47;;
11964;SDS011;6042;41.326;19.826;2022-12-18T15:35:56;10.00;;;7.97;;
11964;SDS011;6042;41.326;19.826;2022-12-18T15:38:26;9.27;;;7.07;;
11964;SDS011;6042;41.326;19.826;2022-12-18T15:40:55;9.50;;;6.83;;